Time;durP1;ratioP1;P1;durP2;ratioP2;P2;SDS_P1;SDS_P2;PMS_P1;PMS_P2;Temp;Humidity;BMP_temperature;BMP_pressure;BME280_temperature;BME280_humidity;BME280_pressure;Samples;Min_cycle;Max_cycle;Signal;HPM_P1;HPM_P2
2022/01/01 00:02:23;;;;;;;;;;;13.40;86.00;;;;;;5030865;28;19913;-83
2022/01/01 00:04:49;;;;;;;;;;;13.40;85.90;;;;;;5033294;28;19908;-83
2022/01/01 00:07:15;;;;;;;;;;;13.40;86.10;;;;;;5033116;28;20459;-82
2022/01/01 00:09:42;;;;;;;;;;;13.40;85.80;;;;;;5032161;28;19916;-83
2022/01/01 00:12:08;;;;;;;;;;;13.50;85.30;;;;;;5066193;28;19923;-82
2022/01/01 00:14:34;;;;;;;;;;;13.50;85.40;;;;;;5033062;28;19920;-82
2022/01/01 00:17:00;;;;;;;;;;;13.40;85.70;;;;;;5051590;28;19915;-81
2022/01/01 00:19:25;;;;;;;;;;;13.50;85.60;;;;;;5051004;28;19915;-83
2022/01/01 00:21:51;;;;;;;;;;;13.40;85.70;;;;;;5032935;28;19913;-83
2022/01/01 00:24:16;;;;;;;;;;;13.40;86.00;;;;;;5066982;28;19920;-81
2022/01/01 00:26:41;;;;;;;;;;;13.50;85.50;;;;;;5033660;28;19915;-83
2022/01/01 00:29:07;;;;;;;;;;;13.40;85.50;;;;;;5066285;28;20387;-82
2022/01/01 00:31:32;;;;;;;;;;;13.50;85.50;;;;;;5051892;28;20058;-82
2022/01/01 00:34:01;;;;;;;;;;;13.40;85.60;;;;;;5033544;28;19939;-83
2022/01/01 00:36:26;;;;;;;;;;;13.40;85.70;;;;;;5050187;28;20291;-81
2022/01/01 00:38:52;;;;;;;;;;;13.40;85.80;;;;;;5066369;28;20001;-83
2022/01/01 00:41:17;;;;;;;;;;;13.40;85.80;;;;;;5036472;28;20372;-82
2022/01/01 00:43:43;;;;;;;;;;;13.30;85.80;;;;;;5014553;28;20252;-82
2022/01/01 00:46:09;;;;;;;;;;;13.30;86.10;;;;;;5012437;28;20336;-83
2022/01/01 00:48:34;;;;;;;;;;;13.30;85.80;;;;;;5033027;28;20372;-83
2022/01/01 00:51:00;;;;;;;;;;;13.30;85.80;;;;;;5050963;28;20437;-82
2022/01/01 00:53:25;;;;;;;;;;;13.30;85.80;;;;;;5051167;28;19913;-82
2022/01/01 00:55:50;;;;;;;;;;;13.30;85.90;;;;;;5032748;28;20004;-83
2022/01/01 00:58:16;;;;;;;;;;;13.30;85.70;;;;;;5067085;28;20360;-83
2022/01/01 01:00:41;;;;;;;;;;;13.30;85.60;;;;;;5066611;28;20012;-81
2022/01/01 01:03:11;;;;;;;;;;;13.30;86.20;;;;;;5033200;28;19940;-83
2022/01/01 01:05:39;;;;;;;;;;;13.30;86.10;;;;;;5067322;28;19916;-82
2022/01/01 01:08:05;;;;;;;;;;;13.30;86.10;;;;;;5055110;28;19913;-83
2022/01/01 01:10:31;;;;;;;;;;;13.40;85.80;;;;;;5069851;28;19909;-82
2022/01/01 01:12:57;;;;;;;;;;;13.40;85.60;;;;;;5035910;28;19962;-82
2022/01/01 01:15:24;;;;;;;;;;;13.30;85.50;;;;;;5054789;28;19996;-82
2022/01/01 01:17:50;;;;;;;;;;;13.40;85.70;;;;;;5052677;28;20237;-83
2022/01/01 01:20:16;;;;;;;;;;;13.40;85.60;;;;;;5036928;28;19956;-83
2022/01/01 01:22:42;;;;;;;;;;;13.30;85.80;;;;;;5053770;28;19913;-82
2022/01/01 01:25:08;;;;;;;;;;;13.30;85.60;;;;;;5054797;28;19909;-83
2022/01/01 01:27:35;;;;;;;;;;;13.40;85.60;;;;;;5036501;28;20120;-83
2022/01/01 01:30:01;;;;;;;;;;;13.30;85.70;;;;;;5052941;28;19913;-83
2022/01/01 01:32:26;;;;;;;;;;;13.40;85.80;;;;;;5036287;28;20011;-83
2022/01/01 01:34:52;;;;;;;;;;;13.40;85.70;;;;;;5036528;28;19936;-83
2022/01/01 01:37:17;;;;;;;;;;;13.30;85.80;;;;;;5035727;28;19917;-83
2022/01/01 01:39:43;;;;;;;;;;;13.30;86.10;;;;;;5036276;28;19999;-80
2022/01/01 01:42:08;;;;;;;;;;;13.30;86.10;;;;;;5036636;28;19992;-81
2022/01/01 01:44:41;;;;;;;;;;;13.30;86.10;;;;;;5056831;28;19920;-81
2022/01/01 01:47:14;;;;;;;;;;;13.30;85.80;;;;;;5044874;28;19971;-82
2022/01/01 01:49:40;;;;;;;;;;;13.30;85.90;;;;;;5042318;28;19923;-81
2022/01/01 01:52:06;;;;;;;;;;;13.30;86.10;;;;;;5046126;28;19913;-80
2022/01/01 01:54:32;;;;;;;;;;;13.40;85.70;;;;;;5058803;28;20040;-80
2022/01/01 01:56:58;;;;;;;;;;;13.30;86.00;;;;;;5069003;28;19921;-80
2022/01/01 01:59:24;;;;;;;;;;;13.30;85.90;;;;;;5068229;28;19935;-81
2022/01/01 02:01:51;;;;;;;;;;;13.30;86.10;;;;;;5069538;28;20047;-81
2022/01/01 02:04:16;;;;;;;;;;;13.20;86.20;;;;;;5034564;28;19916;-81
2022/01/01 02:06:42;;;;;;;;;;;13.30;86.10;;;;;;5035497;28;19920;-81
2022/01/01 02:09:09;;;;;;;;;;;13.30;85.90;;;;;;5068079;28;19909;-82
2022/01/01 02:11:34;;;;;;;;;;;13.40;85.80;;;;;;5052385;28;20394;-81
2022/01/01 02:14:03;;;;;;;;;;;13.30;85.80;;;;;;5067498;28;19916;-82
2022/01/01 02:18:55;;;;;;;;;;;13.20;86.30;;;;;;5052448;28;19908;-81
2022/01/01 02:21:22;;;;;;;;;;;13.20;86.20;;;;;;5034980;28;19919;-81
2022/01/01 02:23:48;;;;;;;;;;;13.30;86.10;;;;;;5030064;28;19967;-81
2022/01/01 02:26:15;;;;;;;;;;;13.30;86.20;;;;;;5052832;28;19916;-80
2022/01/01 02:28:46;;;;;;;;;;;13.30;86.20;;;;;;5114400;22;20415;-85
2022/01/01 02:31:17;;;;;;;;;;;13.30;86.30;;;;;;5069829;28;19987;-85
2022/01/01 02:33:50;;;;;;;;;;;13.30;86.00;;;;;;5063575;28;19927;-85
2022/01/01 02:36:30;;;;;;;;;;;13.30;85.80;;;;;;5086730;28;19923;-86
2022/01/01 02:39:11;;;;;;;;;;;13.50;85.80;;;;;;5046665;28;19913;-86
2022/01/01 02:41:39;;;;;;;;;;;13.50;85.40;;;;;;5035443;28;19948;-86
2022/01/01 02:44:08;;;;;;;;;;;13.30;86.10;;;;;;5036043;28;20007;-85
2022/01/01 02:46:39;;;;;;;;;;;13.30;86.00;;;;;;5089197;28;19988;-85
2022/01/01 02:49:13;;;;;;;;;;;13.30;85.90;;;;;;5078302;28;20100;-85
2022/01/01 02:51:44;;;;;;;;;;;13.30;85.90;;;;;;5072071;28;19913;-87
2022/01/01 02:54:15;;;;;;;;;;;13.20;86.00;;;;;;5085895;28;20003;-86
2022/01/01 02:56:43;;;;;;;;;;;13.20;86.10;;;;;;5064874;28;19912;-85
2022/01/01 02:59:09;;;;;;;;;;;13.30;85.70;;;;;;5051505;28;19913;-86
2022/01/01 03:01:34;;;;;;;;;;;13.20;85.40;;;;;;5034871;28;19915;-86
2022/01/01 03:04:00;;;;;;;;;;;13.30;85.50;;;;;;5033985;28;19935;-86
2022/01/01 03:06:35;;;;;;;;;;;13.30;85.50;;;;;;5053887;28;20007;-86
2022/01/01 03:09:07;;;;;;;;;;;13.30;85.60;;;;;;5033489;28;19931;-86
2022/01/01 03:11:35;;;;;;;;;;;13.30;85.50;;;;;;5034631;28;20236;-86
2022/01/01 03:14:06;;;;;;;;;;;13.40;84.80;;;;;;5032612;28;20019;-86
2022/01/01 03:16:35;;;;;;;;;;;13.40;84.80;;;;;;5034634;28;19913;-86
2022/01/01 03:19:12;;;;;;;;;;;13.40;84.90;;;;;;5033572;28;19909;-86
2022/01/01 03:21:43;;;;;;;;;;;13.30;85.10;;;;;;5035820;28;20271;-86
2022/01/01 03:24:21;;;;;;;;;;;13.30;84.80;;;;;;5033936;28;19928;-87
2022/01/01 03:26:57;;;;;;;;;;;13.30;84.80;;;;;;5033186;28;19936;-85
2022/01/01 03:29:22;;;;;;;;;;;13.40;84.60;;;;;;5032064;28;20343;-86
2022/01/01 03:31:51;;;;;;;;;;;13.30;84.90;;;;;;5033565;28;19944;-86
2022/01/01 03:34:21;;;;;;;;;;;13.30;85.00;;;;;;5033733;28;20291;-86
2022/01/01 03:37:01;;;;;;;;;;;13.30;84.90;;;;;;5044958;28;19912;-86
2022/01/01 03:39:55;;;;;;;;;;;13.30;85.20;;;;;;5030569;28;19941;-86
2022/01/01 03:42:27;;;;;;;;;;;13.40;84.70;;;;;;5013922;28;19971;-85
2022/01/01 03:44:53;;;;;;;;;;;13.30;84.90;;;;;;5055301;28;19913;-86
2022/01/01 03:47:24;;;;;;;;;;;13.20;85.30;;;;;;5074506;28;19955;-86
2022/01/01 03:50:02;;;;;;;;;;;13.40;84.80;;;;;;5061492;28;19916;-87
2022/01/01 03:52:34;;;;;;;;;;;13.30;84.80;;;;;;5032158;28;19916;-86
2022/01/01 03:55:08;;;;;;;;;;;13.30;84.60;;;;;;5051403;28;19919;-87
2022/01/01 03:57:34;;;;;;;;;;;13.30;84.80;;;;;;5061275;28;20315;-86
2022/01/01 04:00:07;;;;;;;;;;;13.30;84.70;;;;;;5047607;28;19909;-86
2022/01/01 04:02:38;;;;;;;;;;;13.40;84.60;;;;;;5045656;28;19961;-86
2022/01/01 04:05:07;;;;;;;;;;;13.40;84.30;;;;;;5070084;28;19919;-86
2022/01/01 04:07:33;;;;;;;;;;;13.40;84.40;;;;;;5040183;28;19920;-87
2022/01/01 04:09:58;;;;;;;;;;;13.40;84.60;;;;;;5056108;28;19909;-86
2022/01/01 04:12:24;;;;;;;;;;;13.30;84.90;;;;;;5032948;28;19910;-86
2022/01/01 04:14:50;;;;;;;;;;;13.30;84.70;;;;;;5033267;28;19966;-86
2022/01/01 04:17:16;;;;;;;;;;;13.40;84.40;;;;;;5055446;28;19909;-86
2022/01/01 04:19:41;;;;;;;;;;;13.30;84.50;;;;;;5013190;28;19913;-87
2022/01/01 04:22:11;;;;;;;;;;;13.30;84.50;;;;;;5014085;28;19909;-86
2022/01/01 04:24:37;;;;;;;;;;;13.30;84.30;;;;;;5024186;28;19920;-87
2022/01/01 04:27:03;;;;;;;;;;;13.20;84.90;;;;;;5033178;28;20016;-87
2022/01/01 04:29:30;;;;;;;;;;;13.30;84.90;;;;;;5031917;28;20204;-86
2022/01/01 04:31:55;;;;;;;;;;;13.40;84.40;;;;;;5035109;28;19939;-86
2022/01/01 04:34:21;;;;;;;;;;;13.40;84.20;;;;;;5032741;28;19916;-86
2022/01/01 04:36:52;;;;;;;;;;;13.30;84.30;;;;;;5033047;28;19920;-86
2022/01/01 04:39:18;;;;;;;;;;;13.30;84.50;;;;;;5051446;28;19908;-86
2022/01/01 04:41:43;;;;;;;;;;;13.20;84.70;;;;;;5036684;28;20289;-87
2022/01/01 04:44:09;;;;;;;;;;;13.30;84.60;;;;;;5035827;28;19909;-85
2022/01/01 04:46:34;;;;;;;;;;;13.30;84.10;;;;;;5045069;28;19973;-86
2022/01/01 04:49:00;;;;;;;;;;;13.30;84.10;;;;;;5067052;28;19938;-87
2022/01/01 04:51:26;;;;;;;;;;;13.30;84.10;;;;;;5058764;28;20367;-86
2022/01/01 04:53:58;;;;;;;;;;;13.40;83.90;;;;;;5037118;28;19917;-87
2022/01/01 04:56:24;;;;;;;;;;;13.30;84.10;;;;;;5049119;28;19980;-86
2022/01/01 04:58:49;;;;;;;;;;;13.30;83.80;;;;;;5052468;28;19924;-86
2022/01/01 05:01:15;;;;;;;;;;;13.30;84.10;;;;;;5037153;28;20356;-86
2022/01/01 05:03:40;;;;;;;;;;;13.30;83.90;;;;;;5037133;28;20052;-85
2022/01/01 05:06:06;;;;;;;;;;;13.30;83.80;;;;;;5036660;28;20393;-86
2022/01/01 05:08:31;;;;;;;;;;;13.30;83.80;;;;;;5037202;28;20351;-86
2022/01/01 05:10:57;;;;;;;;;;;13.30;83.70;;;;;;5037739;28;19913;-86
2022/01/01 05:13:22;;;;;;;;;;;13.30;83.70;;;;;;5036612;28;19913;-86
2022/01/01 05:15:50;;;;;;;;;;;13.30;83.30;;;;;;5047678;28;19919;-86
2022/01/01 05:18:16;;;;;;;;;;;13.30;83.30;;;;;;5057124;28;20282;-86
2022/01/01 05:20:41;;;;;;;;;;;13.30;83.50;;;;;;5039625;28;20000;-85
2022/01/01 05:23:07;;;;;;;;;;;13.20;83.50;;;;;;5036719;28;19913;-86
2022/01/01 05:25:32;;;;;;;;;;;13.30;83.40;;;;;;5056573;28;19919;-86
2022/01/01 05:27:58;;;;;;;;;;;13.30;83.30;;;;;;5037238;28;19908;-86
2022/01/01 05:30:23;;;;;;;;;;;13.30;83.10;;;;;;5036750;28;20437;-86
2022/01/01 05:32:49;;;;;;;;;;;13.30;83.10;;;;;;5017137;28;19909;-86
2022/01/01 05:35:14;;;;;;;;;;;13.30;83.00;;;;;;5020657;28;19919;-86
2022/01/01 05:37:40;;;;;;;;;;;13.40;82.50;;;;;;5035985;28;20367;-86
2022/01/01 05:40:06;;;;;;;;;;;13.40;82.70;;;;;;5036021;28;19912;-86
2022/01/01 05:42:31;;;;;;;;;;;13.30;82.90;;;;;;5035661;28;19913;-86
2022/01/01 05:44:57;;;;;;;;;;;13.30;82.80;;;;;;5037385;28;19909;-85
2022/01/01 05:47:22;;;;;;;;;;;13.30;82.90;;;;;;5054683;28;19955;-86
2022/01/01 05:49:48;;;;;;;;;;;13.30;82.70;;;;;;5040728;28;19920;-86
2022/01/01 05:52:13;;;;;;;;;;;13.20;83.10;;;;;;5054300;28;19919;-86
2022/01/01 05:54:39;;;;;;;;;;;13.20;83.10;;;;;;5055567;28;19916;-86
2022/01/01 05:57:05;;;;;;;;;;;13.30;83.00;;;;;;5047765;28;19908;-86
2022/01/01 05:59:31;;;;;;;;;;;13.30;83.00;;;;;;5056879;28;19916;-87
2022/01/01 06:01:56;;;;;;;;;;;13.30;83.00;;;;;;5035864;28;20332;-86
2022/01/01 06:04:22;;;;;;;;;;;13.40;83.00;;;;;;5036183;28;19917;-86
2022/01/01 06:06:47;;;;;;;;;;;13.40;82.80;;;;;;5034586;28;19967;-86
2022/01/01 06:09:13;;;;;;;;;;;13.40;82.80;;;;;;5043888;28;19923;-86
2022/01/01 06:11:38;;;;;;;;;;;13.30;82.90;;;;;;5049834;28;19917;-86
2022/01/01 06:14:04;;;;;;;;;;;13.30;83.10;;;;;;5034333;28;20264;-86
2022/01/01 06:16:29;;;;;;;;;;;13.30;82.90;;;;;;5051328;28;19944;-85
2022/01/01 06:18:57;;;;;;;;;;;13.30;83.10;;;;;;5055028;28;19913;-92
2022/01/01 06:21:25;;;;;;;;;;;13.30;82.80;;;;;;5037037;28;19924;-87
2022/01/01 06:23:53;;;;;;;;;;;13.30;82.50;;;;;;5049254;28;19912;-86
2022/01/01 06:26:25;;;;;;;;;;;13.40;82.50;;;;;;5056368;28;19956;-87
2022/01/01 06:28:57;;;;;;;;;;;13.40;82.80;;;;;;5034725;28;20286;-88
2022/01/01 06:31:30;;;;;;;;;;;13.30;82.90;;;;;;5052957;28;19961;-87
2022/01/01 06:33:55;;;;;;;;;;;13.30;82.70;;;;;;5035416;28;19917;-86
2022/01/01 06:36:21;;;;;;;;;;;13.50;82.40;;;;;;5036385;28;19916;-87
2022/01/01 06:38:51;;;;;;;;;;;13.30;82.40;;;;;;5056178;28;20083;-87
2022/01/01 06:41:24;;;;;;;;;;;13.30;82.70;;;;;;5033912;28;20280;-86
2022/01/01 06:43:50;;;;;;;;;;;13.30;82.80;;;;;;5038315;28;19912;-87
2022/01/01 06:46:15;;;;;;;;;;;13.20;83.10;;;;;;5052643;28;20024;-86
2022/01/01 06:48:41;;;;;;;;;;;13.30;82.80;;;;;;5034163;28;20358;-87
2022/01/01 06:51:06;;;;;;;;;;;13.30;82.60;;;;;;5052841;28;19916;-87
2022/01/01 06:53:32;;;;;;;;;;;13.30;83.00;;;;;;5052009;28;19923;-87
2022/01/01 06:55:59;;;;;;;;;;;13.30;82.80;;;;;;5034954;28;20303;-87
2022/01/01 06:58:24;;;;;;;;;;;13.30;82.80;;;;;;5056065;28;20000;-88
2022/01/01 07:00:50;;;;;;;;;;;13.30;82.60;;;;;;5058409;28;19951;-88
2022/01/01 07:03:20;;;;;;;;;;;13.30;82.70;;;;;;5042389;28;19909;-87
2022/01/01 07:05:46;;;;;;;;;;;13.30;83.00;;;;;;5034549;28;19909;-87
2022/01/01 07:08:11;;;;;;;;;;;13.30;82.90;;;;;;5034327;28;19909;-87
2022/01/01 07:10:37;;;;;;;;;;;13.20;82.80;;;;;;5050272;28;19968;-86
2022/01/01 07:13:03;;;;;;;;;;;13.30;82.70;;;;;;5051659;28;19920;-86
2022/01/01 07:15:28;;;;;;;;;;;13.20;83.00;;;;;;5034348;28;20343;-86
2022/01/01 07:17:53;;;;;;;;;;;13.30;82.80;;;;;;5043581;28;19938;-86
2022/01/01 07:20:19;;;;;;;;;;;13.40;82.50;;;;;;5058182;28;19901;-86
2022/01/01 07:22:45;;;;;;;;;;;13.30;82.70;;;;;;5037065;28;19909;-86
2022/01/01 07:25:11;;;;;;;;;;;13.30;82.40;;;;;;5047179;28;20001;-87
2022/01/01 07:27:37;;;;;;;;;;;13.20;83.10;;;;;;5033856;28;19913;-86
2022/01/01 07:30:03;;;;;;;;;;;13.30;82.70;;;;;;5033339;28;19971;-86
2022/01/01 07:32:28;;;;;;;;;;;13.30;82.30;;;;;;5033794;28;19908;-86
2022/01/01 07:34:55;;;;;;;;;;;13.40;82.20;;;;;;5051852;28;20299;-86
2022/01/01 07:37:20;;;;;;;;;;;13.50;81.90;;;;;;5051503;28;19955;-86
2022/01/01 07:39:46;;;;;;;;;;;13.30;82.00;;;;;;5039013;28;19909;-86
2022/01/01 07:42:14;;;;;;;;;;;13.30;82.60;;;;;;5054606;28;19920;-86
2022/01/01 07:44:41;;;;;;;;;;;13.30;82.30;;;;;;5032931;28;20397;-86
2022/01/01 07:47:06;;;;;;;;;;;13.30;82.30;;;;;;5033573;28;20027;-86
2022/01/01 07:49:32;;;;;;;;;;;13.30;82.00;;;;;;5033353;28;19941;-87
2022/01/01 07:51:57;;;;;;;;;;;13.30;82.20;;;;;;5033357;28;19916;-86
2022/01/01 07:54:23;;;;;;;;;;;13.40;81.70;;;;;;5051214;28;19939;-86
2022/01/01 07:56:48;;;;;;;;;;;13.40;82.10;;;;;;5051230;28;19981;-86
2022/01/01 07:59:14;;;;;;;;;;;13.40;81.50;;;;;;5031887;28;20011;-86
2022/01/01 08:01:40;;;;;;;;;;;13.40;81.40;;;;;;5055231;28;19909;-87
2022/01/01 08:04:05;;;;;;;;;;;13.40;81.50;;;;;;5032887;28;19913;-86
2022/01/01 08:06:31;;;;;;;;;;;13.40;81.40;;;;;;5033365;28;19909;-86
2022/01/01 08:08:57;;;;;;;;;;;13.50;81.10;;;;;;5032843;28;20389;-86
2022/01/01 08:11:22;;;;;;;;;;;13.40;80.90;;;;;;5051007;28;19908;-86
2022/01/01 08:13:47;;;;;;;;;;;13.40;80.80;;;;;;5031861;28;20453;-86
2022/01/01 08:16:13;;;;;;;;;;;13.40;81.00;;;;;;5033273;28;20007;-86
2022/01/01 08:18:39;;;;;;;;;;;13.40;81.20;;;;;;5050594;28;19913;-86
2022/01/01 08:21:04;;;;;;;;;;;13.40;81.40;;;;;;5033508;28;20340;-86
2022/01/01 08:23:30;;;;;;;;;;;13.50;80.80;;;;;;5032547;28;20377;-85
2022/01/01 08:25:57;;;;;;;;;;;13.50;80.40;;;;;;5052196;28;19993;-86
2022/01/01 08:28:22;;;;;;;;;;;13.50;80.50;;;;;;5033190;28;19909;-86
2022/01/01 08:30:47;;;;;;;;;;;13.50;80.40;;;;;;5032742;28;19925;-86
2022/01/01 08:33:13;;;;;;;;;;;13.60;80.20;;;;;;5034586;28;19919;-86
2022/01/01 08:35:38;;;;;;;;;;;13.60;79.90;;;;;;5033220;28;19928;-86
2022/01/01 08:38:04;;;;;;;;;;;13.70;79.70;;;;;;5018199;28;20382;-86
2022/01/01 08:40:30;;;;;;;;;;;13.70;79.70;;;;;;5022274;28;19953;-87
2022/01/01 08:42:55;;;;;;;;;;;13.70;80.00;;;;;;5035616;28;20003;-86
2022/01/01 08:45:21;;;;;;;;;;;13.70;80.00;;;;;;5033487;28;20338;-86
2022/01/01 08:47:47;;;;;;;;;;;13.60;79.80;;;;;;5051202;28;19995;-86
2022/01/01 08:50:12;;;;;;;;;;;13.60;79.70;;;;;;5032617;28;20325;-86
2022/01/01 08:52:38;;;;;;;;;;;13.60;79.40;;;;;;5033134;28;19909;-86
2022/01/01 08:55:04;;;;;;;;;;;13.60;79.00;;;;;;5032582;28;19928;-85
2022/01/01 08:57:32;;;;;;;;;;;13.70;79.10;;;;;;5051591;28;20411;-88
2022/01/01 08:59:58;;;;;;;;;;;13.70;78.80;;;;;;5051830;28;19913;-86
2022/01/01 09:02:24;;;;;;;;;;;13.60;79.00;;;;;;5032318;28;19916;-86
2022/01/01 09:04:50;;;;;;;;;;;13.70;78.70;;;;;;5050453;28;19962;-87
2022/01/01 09:07:15;;;;;;;;;;;13.80;78.60;;;;;;5031105;28;19916;-87
2022/01/01 09:09:41;;;;;;;;;;;13.70;78.80;;;;;;5029562;28;20509;-86
2022/01/01 09:12:07;;;;;;;;;;;13.80;78.00;;;;;;5039582;28;19908;-86
2022/01/01 09:14:32;;;;;;;;;;;13.70;78.40;;;;;;5033379;28;19996;-86
2022/01/01 09:16:58;;;;;;;;;;;13.90;77.70;;;;;;5033752;28;20299;-86
2022/01/01 09:19:23;;;;;;;;;;;14.00;77.60;;;;;;5035456;28;19916;-86
2022/01/01 09:21:49;;;;;;;;;;;14.00;77.50;;;;;;5051514;28;19963;-86
2022/01/01 09:24:14;;;;;;;;;;;13.90;77.80;;;;;;5034539;28;20016;-85
2022/01/01 09:26:40;;;;;;;;;;;13.80;78.00;;;;;;5052858;28;20373;-86
2022/01/01 09:29:06;;;;;;;;;;;13.80;77.90;;;;;;5036361;28;19935;-87
2022/01/01 09:31:32;;;;;;;;;;;13.90;77.10;;;;;;5053991;28;19985;-87
2022/01/01 09:33:58;;;;;;;;;;;14.00;77.10;;;;;;5047504;28;19905;-86
2022/01/01 09:36:23;;;;;;;;;;;13.90;77.10;;;;;;5055005;28;19917;-86
2022/01/01 09:38:49;;;;;;;;;;;14.00;77.20;;;;;;5057506;28;19916;-87
2022/01/01 09:41:15;;;;;;;;;;;14.10;76.90;;;;;;5067981;28;19909;-84
2022/01/01 09:43:41;;;;;;;;;;;14.10;77.00;;;;;;5049255;28;20709;-86
2022/01/01 09:46:08;;;;;;;;;;;14.00;77.00;;;;;;5036372;28;20057;-86
2022/01/01 09:48:33;;;;;;;;;;;14.00;76.90;;;;;;5028356;28;19941;-85
2022/01/01 09:51:00;;;;;;;;;;;14.00;76.60;;;;;;5039636;28;19912;-85
2022/01/01 09:53:27;;;;;;;;;;;14.00;76.90;;;;;;5054760;28;19916;-86
2022/01/01 09:55:53;;;;;;;;;;;14.00;76.50;;;;;;5043797;22;19959;-83
2022/01/01 09:58:23;;;;;;;;;;;14.00;76.50;;;;;;5035572;28;19915;-83
2022/01/01 10:00:50;;;;;;;;;;;14.00;76.80;;;;;;5034387;28;20004;-83
2022/01/01 10:03:15;;;;;;;;;;;14.10;77.20;;;;;;5034385;28;19959;-83
2022/01/01 10:05:57;;;;;;;;;;;14.10;77.20;;;;;;5033499;28;19913;-83
2022/01/01 10:08:23;;;;;;;;;;;14.10;76.90;;;;;;5034710;28;19909;-82
2022/01/01 10:10:49;;;;;;;;;;;14.10;77.10;;;;;;5035313;28;19909;-83
2022/01/01 10:13:16;;;;;;;;;;;14.20;76.50;;;;;;5035877;28;19909;-83
2022/01/01 10:15:42;;;;;;;;;;;14.30;76.20;;;;;;5035222;28;19917;-82
2022/01/01 10:18:07;;;;;;;;;;;14.30;75.70;;;;;;5035620;28;19956;-83
2022/01/01 10:20:35;;;;;;;;;;;14.30;76.10;;;;;;5031622;28;20095;-83
2022/01/01 10:23:15;;;;;;;;;;;14.30;75.70;;;;;;5014569;28;20048;-84
2022/01/01 10:28:25;;;;;;;;;;;14.30;76.10;;;;;;5035726;28;20412;-83
2022/01/01 10:30:51;;;;;;;;;;;14.30;75.70;;;;;;5035891;28;19913;-83
2022/01/01 10:33:18;;;;;;;;;;;14.40;75.00;;;;;;5034141;28;19909;-82
2022/01/01 10:35:45;;;;;;;;;;;14.50;75.10;;;;;;5033508;28;20369;-83
2022/01/01 10:38:10;;;;;;;;;;;14.50;75.10;;;;;;5033067;28;20012;-82
2022/01/01 10:40:36;;;;;;;;;;;14.50;74.80;;;;;;5032935;28;20349;-83
2022/01/01 10:43:01;;;;;;;;;;;14.50;75.00;;;;;;5032297;28;19913;-83
2022/01/01 10:45:38;;;;;;;;;;;14.50;74.80;;;;;;5034312;28;19909;-82
2022/01/01 10:50:51;;;;;;;;;;;14.70;74.60;;;;;;5036162;28;20270;-82
2022/01/01 10:53:20;;;;;;;;;;;14.60;74.50;;;;;;5035265;28;19910;-81
2022/01/01 10:55:49;;;;;;;;;;;14.60;74.60;;;;;;5033520;28;20381;-81
2022/01/01 10:58:18;;;;;;;;;;;14.80;74.00;;;;;;5032415;28;19919;-82
2022/01/01 11:00:44;;;;;;;;;;;14.80;73.70;;;;;;5033610;28;19931;-81
2022/01/01 11:03:15;;;;;;;;;;;14.90;74.10;;;;;;5034308;28;19956;-81
2022/01/01 11:05:41;;;;;;;;;;;14.90;73.80;;;;;;5034324;28;19943;-82
2022/01/01 11:08:07;;;;;;;;;;;14.90;73.00;;;;;;5035673;28;19913;-82
2022/01/01 11:10:33;;;;;;;;;;;15.00;73.90;;;;;;5023765;28;19981;-82
2022/01/01 11:12:59;;;;;;;;;;;15.00;73.40;;;;;;5020615;28;19944;-81
2022/01/01 11:15:25;;;;;;;;;;;15.00;73.00;;;;;;5015454;28;19976;-82
2022/01/01 11:17:51;;;;;;;;;;;15.00;73.30;;;;;;5013399;28;19914;-82
2022/01/01 11:20:17;;;;;;;;;;;14.90;73.80;;;;;;5013908;28;20259;-80
2022/01/01 11:22:43;;;;;;;;;;;15.00;73.40;;;;;;5025802;28;20277;-81
2022/01/01 11:25:09;;;;;;;;;;;15.00;73.10;;;;;;5034349;28;19995;-82
2022/01/01 11:27:34;;;;;;;;;;;14.90;73.20;;;;;;5035300;28;19944;-82
2022/01/01 11:30:03;;;;;;;;;;;14.80;73.30;;;;;;5028811;28;19924;-82
2022/01/01 11:32:48;;;;;;;;;;;14.80;73.70;;;;;;5012460;28;19910;-82
2022/01/01 11:35:27;;;;;;;;;;;15.00;73.30;;;;;;5012264;28;20297;-82
2022/01/01 11:38:04;;;;;;;;;;;15.10;72.70;;;;;;5013519;28;19936;-81
2022/01/01 11:40:38;;;;;;;;;;;15.00;73.00;;;;;;5018210;28;20012;-80
2022/01/01 11:43:04;;;;;;;;;;;15.00;73.00;;;;;;5035724;28;19913;-82
2022/01/01 11:45:43;;;;;;;;;;;15.10;72.90;;;;;;5032487;28;19920;-81
2022/01/01 11:48:28;;;;;;;;;;;15.40;72.00;;;;;;5034080;28;20380;-82
2022/01/01 11:50:54;;;;;;;;;;;15.50;71.00;;;;;;5033659;28;19909;-82
2022/01/01 11:53:27;;;;;;;;;;;15.40;71.50;;;;;;5034384;28;19924;-81
2022/01/01 11:56:12;;;;;;;;;;;15.40;72.00;;;;;;5033917;28;20357;-82
2022/01/01 11:58:48;;;;;;;;;;;15.30;71.60;;;;;;5030255;28;19979;-82
2022/01/01 12:01:17;;;;;;;;;;;15.40;71.30;;;;;;5030248;28;19928;-83
2022/01/01 12:03:53;;;;;;;;;;;15.30;71.90;;;;;;5032727;28;19909;-83
2022/01/01 12:06:19;;;;;;;;;;;15.40;71.50;;;;;;5034190;28;20281;-81
2022/01/01 12:08:49;;;;;;;;;;;15.20;71.30;;;;;;5031508;28;19910;-82
2022/01/01 12:11:29;;;;;;;;;;;15.40;71.40;;;;;;5023893;28;20322;-83
2022/01/01 12:13:55;;;;;;;;;;;15.50;70.90;;;;;;5013863;28;19921;-80
2022/01/01 12:16:21;;;;;;;;;;;15.30;72.00;;;;;;5034175;28;20315;-81
2022/01/01 12:18:46;;;;;;;;;;;15.30;72.20;;;;;;5033166;28;19948;-80
2022/01/01 12:21:18;;;;;;;;;;;15.60;71.50;;;;;;5035767;28;19909;-83
2022/01/01 12:23:46;;;;;;;;;;;15.40;72.00;;;;;;5037246;28;19934;-83
2022/01/01 12:26:14;;;;;;;;;;;15.40;72.60;;;;;;5033617;28;19920;-82
2022/01/01 12:28:39;;;;;;;;;;;15.60;71.50;;;;;;5034404;28;20000;-82
2022/01/01 12:31:12;;;;;;;;;;;15.80;70.90;;;;;;5032510;28;20026;-82
2022/01/01 12:33:38;;;;;;;;;;;15.60;71.70;;;;;;5035561;28;20313;-82
2022/01/01 12:36:33;;;;;;;;;;;15.70;70.90;;;;;;5038731;28;19909;-82
2022/01/01 12:39:00;;;;;;;;;;;15.60;71.60;;;;;;5033496;28;19909;-82
2022/01/01 12:41:28;;;;;;;;;;;15.70;71.40;;;;;;5035343;28;20000;-81
2022/01/01 12:43:58;;;;;;;;;;;15.80;71.20;;;;;;5035957;28;19913;-80
2022/01/01 12:46:25;;;;;;;;;;;15.80;70.70;;;;;;5037374;28;19920;-82
2022/01/01 12:48:51;;;;;;;;;;;15.70;71.10;;;;;;5030126;28;19920;-82
2022/01/01 12:51:20;;;;;;;;;;;15.60;71.50;;;;;;5023665;28;19933;-82
2022/01/01 12:53:47;;;;;;;;;;;15.60;71.20;;;;;;5018092;28;20343;-82
2022/01/01 12:56:14;;;;;;;;;;;15.70;71.10;;;;;;5017978;28;20321;-80
2022/01/01 12:58:41;;;;;;;;;;;15.70;71.60;;;;;;5017360;28;19913;-82
2022/01/01 13:01:09;;;;;;;;;;;15.60;71.40;;;;;;5039895;28;19917;-83
2022/01/01 13:03:35;;;;;;;;;;;15.60;71.50;;;;;;5043041;28;19913;-82
2022/01/01 13:06:01;;;;;;;;;;;15.50;71.50;;;;;;5041913;28;19963;-82
2022/01/01 13:08:26;;;;;;;;;;;15.50;71.60;;;;;;5045880;28;19910;-80
2022/01/01 13:10:52;;;;;;;;;;;15.40;72.00;;;;;;5051727;28;19909;-82
2022/01/01 13:13:28;;;;;;;;;;;15.40;72.40;;;;;;5048532;28;19909;-83
2022/01/01 13:15:56;;;;;;;;;;;15.40;72.40;;;;;;5041069;28;19955;-82
2022/01/01 13:18:28;;;;;;;;;;;15.40;72.50;;;;;;5042684;28;19909;-83
2022/01/01 13:20:54;;;;;;;;;;;15.30;72.60;;;;;;5042856;28;19909;-83
2022/01/01 13:23:23;;;;;;;;;;;15.30;72.40;;;;;;5043988;28;19918;-83
2022/01/01 13:25:49;;;;;;;;;;;15.10;72.90;;;;;;5046890;28;19916;-84
2022/01/01 13:28:15;;;;;;;;;;;15.10;72.80;;;;;;5044195;28;20354;-83
2022/01/01 13:30:43;;;;;;;;;;;15.10;73.30;;;;;;5038329;28;19916;-83
2022/01/01 13:33:09;;;;;;;;;;;15.00;73.70;;;;;;5037208;28;19909;-83
2022/01/01 13:35:34;;;;;;;;;;;14.90;73.90;;;;;;5033718;28;20074;-83
2022/01/01 13:38:00;;;;;;;;;;;14.90;74.20;;;;;;5029749;28;19913;-83
2022/01/01 13:40:25;;;;;;;;;;;15.00;74.00;;;;;;5033464;28;19909;-81
2022/01/01 13:42:50;;;;;;;;;;;15.10;73.50;;;;;;5051724;28;19939;-84
2022/01/01 13:45:16;;;;;;;;;;;15.00;74.00;;;;;;5035051;28;20361;-84
2022/01/01 13:47:41;;;;;;;;;;;15.10;73.90;;;;;;5035960;28;19917;-81
2022/01/01 13:50:11;;;;;;;;;;;15.00;74.00;;;;;;5034748;28;20445;-83
2022/01/01 13:52:37;;;;;;;;;;;15.10;74.10;;;;;;5037357;28;20589;-83
2022/01/01 13:55:05;;;;;;;;;;;15.00;73.80;;;;;;5036985;28;19924;-83
2022/01/01 13:57:31;;;;;;;;;;;14.90;74.00;;;;;;5040982;28;20105;-82
2022/01/01 13:59:57;;;;;;;;;;;14.90;74.30;;;;;;5037199;28;20009;-82
2022/01/01 14:02:24;;;;;;;;;;;15.00;73.80;;;;;;5038036;28;19909;-83
2022/01/01 14:04:49;;;;;;;;;;;15.00;73.90;;;;;;5040518;28;19909;-84
2022/01/01 14:07:17;;;;;;;;;;;15.00;73.90;;;;;;5037129;28;19909;-82
2022/01/01 14:09:55;;;;;;;;;;;15.20;73.70;;;;;;5038312;28;19909;-83
2022/01/01 14:12:21;;;;;;;;;;;15.20;73.50;;;;;;5053935;28;20357;-83
2022/01/01 14:14:46;;;;;;;;;;;15.20;73.40;;;;;;5037939;28;19939;-83
2022/01/01 14:17:12;;;;;;;;;;;15.20;73.60;;;;;;5038239;28;19913;-83
2022/01/01 14:19:37;;;;;;;;;;;15.10;73.50;;;;;;5038142;28;20289;-82
2022/01/01 14:22:10;;;;;;;;;;;15.00;73.90;;;;;;5040792;28;19916;-83
2022/01/01 14:24:51;;;;;;;;;;;14.80;74.50;;;;;;5039051;28;19982;-83
2022/01/01 14:27:17;;;;;;;;;;;14.70;75.20;;;;;;5038118;28;20388;-83